sensor_id;sensor_type;location;lat;lon;timestamp;pressure;altitude;pressure_sealevel;temperature;humidity
39793;BME280;26080;42.264;24.536;2022-10-04T00:02:53;99416.16;;;10.06;100.00
39793;BME280;26080;42.264;24.536;2022-10-04T00:05:21;99419.34;;;10.13;100.00
39793;BME280;26080;42.264;24.536;2022-10-04T00:07:49;99422.53;;;10.21;100.00
39793;BME280;26080;42.264;24.536;2022-10-04T00:10:17;99426.69;;;10.25;100.00
39793;BME280;26080;42.264;24.536;2022-10-04T00:12:45;99419.38;;;10.33;100.00
39793;BME280;26080;42.264;24.536;2022-10-04T00:15:24;99421.63;;;10.41;100.00
39793;BME280;26080;42.264;24.536;2022-10-04T00:25:47;99422.16;;;10.49;100.00
39793;BME280;26080;42.264;24.536;2022-10-04T00:30:44;99426.16;;;10.37;100.00
39793;BME280;26080;42.264;24.536;2022-10-04T00:33:09;99424.53;;;10.35;100.00
39793;BME280;26080;42.264;24.536;2022-10-04T00:38:01;99423.97;;;10.28;100.00
39793;BME280;26080;42.264;24.536;2022-10-04T00:40:36;99421.53;;;10.24;100.00
39793;BME280;26080;42.264;24.536;2022-10-04T00:43:23;99423.56;;;10.17;100.00
39793;BME280;26080;42.264;24.536;2022-10-04T00:45:57;99423.03;;;10.09;100.00
39793;BME280;26080;42.264;24.536;2022-10-04T00:50:52;99415.69;;;9.97;100.00
39793;BME280;26080;42.264;24.536;2022-10-04T00:53:31;99409.97;;;9.89;100.00
39793;BME280;26080;42.264;24.536;2022-10-04T00:55:59;99409.34;;;9.82;100.00
39793;BME280;26080;42.264;24.536;2022-10-04T00:58:28;99411.41;;;9.75;100.00
39793;BME280;26080;42.264;24.536;2022-10-04T01:00:55;99410.66;;;9.72;100.00
39793;BME280;26080;42.264;24.536;2022-10-04T01:03:42;99411.47;;;9.74;100.00
39793;BME280;26080;42.264;24.536;2022-10-04T01:06:07;99408.38;;;9.85;100.00
39793;BME280;26080;42.264;24.536;2022-10-04T01:08:39;99415.00;;;9.93;100.00
39793;BME280;26080;42.264;24.536;2022-10-04T01:11:05;99417.00;;;10.07;100.00
39793;BME280;26080;42.264;24.536;2022-10-04T01:13:37;99418.50;;;10.13;100.00
39793;BME280;26080;42.264;24.536;2022-10-04T01:16:08;99426.34;;;10.13;100.00
39793;BME280;26080;42.264;24.536;2022-10-04T01:18:35;99419.63;;;10.07;100.00
39793;BME280;26080;42.264;24.536;2022-10-04T01:21:21;99420.75;;;10.01;100.00
39793;BME280;26080;42.264;24.536;2022-10-04T01:31:29;99436.00;;;9.92;100.00
39793;BME280;26080;42.264;24.536;2022-10-04T01:33:55;99437.75;;;9.91;100.00
39793;BME280;26080;42.264;24.536;2022-10-04T01:36:21;99447.44;;;9.89;100.00
39793;BME280;26080;42.264;24.536;2022-10-04T01:38:46;99443.16;;;9.87;100.00
39793;BME280;26080;42.264;24.536;2022-10-04T01:41:12;99448.53;;;9.84;100.00
39793;BME280;26080;42.264;24.536;2022-10-04T01:43:39;99445.91;;;9.84;100.00
39793;BME280;26080;42.264;24.536;2022-10-04T01:46:08;99451.94;;;9.86;100.00
39793;BME280;26080;42.264;24.536;2022-10-04T01:48:35;99434.94;;;9.75;100.00
39793;BME280;26080;42.264;24.536;2022-10-04T01:51:03;99459.00;;;9.84;100.00
39793;BME280;26080;42.264;24.536;2022-10-04T01:53:30;99453.91;;;9.80;100.00
39793;BME280;26080;42.264;24.536;2022-10-04T01:56:02;99455.72;;;9.78;100.00
39793;BME280;26080;42.264;24.536;2022-10-04T01:58:47;99453.34;;;9.72;100.00
39793;BME280;26080;42.264;24.536;2022-10-04T02:01:22;99453.41;;;9.71;100.00
39793;BME280;26080;42.264;24.536;2022-10-04T02:03:54;99455.44;;;9.64;100.00
39793;BME280;26080;42.264;24.536;2022-10-04T02:06:22;99453.13;;;9.57;100.00
39793;BME280;26080;42.264;24.536;2022-10-04T02:08:48;99459.59;;;9.48;100.00
39793;BME280;26080;42.264;24.536;2022-10-04T02:11:15;99463.22;;;9.44;100.00
39793;BME280;26080;42.264;24.536;2022-10-04T02:13:43;99458.13;;;9.41;100.00
39793;BME280;26080;42.264;24.536;2022-10-04T02:16:10;99462.56;;;9.39;100.00
39793;BME280;26080;42.264;24.536;2022-10-04T02:18:39;99464.47;;;9.35;100.00
39793;BME280;26080;42.264;24.536;2022-10-04T02:21:07;99463.63;;;9.35;100.00
39793;BME280;26080;42.264;24.536;2022-10-04T02:23:34;99460.88;;;9.38;100.00
39793;BME280;26080;42.264;24.536;2022-10-04T02:26:04;99467.59;;;9.43;100.00
39793;BME280;26080;42.264;24.536;2022-10-04T02:28:31;99463.97;;;9.47;100.00
39793;BME280;26080;42.264;24.536;2022-10-04T02:30:56;99458.56;;;9.52;100.00
39793;BME280;26080;42.264;24.536;2022-10-04T02:33:41;99466.03;;;9.61;100.00
39793;BME280;26080;42.264;24.536;2022-10-04T02:36:08;99467.53;;;9.67;100.00
39793;BME280;26080;42.264;24.536;2022-10-04T02:38:48;99469.03;;;9.72;100.00
39793;BME280;26080;42.264;24.536;2022-10-04T02:43:48;99473.13;;;9.79;100.00
39793;BME280;26080;42.264;24.536;2022-10-04T02:46:31;99473.97;;;9.80;100.00
39793;BME280;26080;42.264;24.536;2022-10-04T02:48:58;99477.91;;;9.90;100.00
39793;BME280;26080;42.264;24.536;2022-10-04T02:56:49;99477.34;;;10.04;100.00
39793;BME280;26080;42.264;24.536;2022-10-04T02:59:16;99480.59;;;10.09;100.00
39793;BME280;26080;42.264;24.536;2022-10-04T03:01:52;99485.84;;;10.09;100.00
39793;BME280;26080;42.264;24.536;2022-10-04T03:04:19;99480.72;;;10.06;100.00
39793;BME280;26080;42.264;24.536;2022-10-04T03:06:47;99480.81;;;10.04;100.00
39793;BME280;26080;42.264;24.536;2022-10-04T03:09:13;99475.75;;;10.00;100.00
39793;BME280;26080;42.264;24.536;2022-10-04T03:11:39;99477.72;;;9.95;100.00
39793;BME280;26080;42.264;24.536;2022-10-04T03:14:07;99479.78;;;9.87;100.00
39793;BME280;26080;42.264;24.536;2022-10-04T03:16:37;99480.19;;;9.77;100.00
39793;BME280;26080;42.264;24.536;2022-10-04T03:19:03;99478.00;;;9.67;100.00
39793;BME280;26080;42.264;24.536;2022-10-04T03:21:30;99481.88;;;9.57;100.00
39793;BME280;26080;42.264;24.536;2022-10-04T03:23:56;99484.97;;;9.46;100.00
39793;BME280;26080;42.264;24.536;2022-10-04T03:26:28;99480.09;;;9.37;100.00
39793;BME280;26080;42.264;24.536;2022-10-04T03:28:56;99481.13;;;9.33;100.00
39793;BME280;26080;42.264;24.536;2022-10-04T03:31:22;99486.50;;;9.28;100.00
39793;BME280;26080;42.264;24.536;2022-10-04T03:33:48;99484.75;;;9.29;100.00
39793;BME280;26080;42.264;24.536;2022-10-04T03:36:14;99487.38;;;9.29;100.00
39793;BME280;26080;42.264;24.536;2022-10-04T03:38:41;99485.53;;;9.31;100.00
39793;BME280;26080;42.264;24.536;2022-10-04T03:41:08;99485.31;;;9.37;100.00
39793;BME280;26080;42.264;24.536;2022-10-04T03:43:35;99497.22;;;9.44;100.00
39793;BME280;26080;42.264;24.536;2022-10-04T03:46:02;99494.38;;;9.50;100.00
39793;BME280;26080;42.264;24.536;2022-10-04T03:48:30;99489.66;;;9.58;100.00
39793;BME280;26080;42.264;24.536;2022-10-04T03:50:56;99501.66;;;9.64;100.00
39793;BME280;26080;42.264;24.536;2022-10-04T03:55:47;99489.06;;;9.73;100.00
39793;BME280;26080;42.264;24.536;2022-10-04T03:58:13;99499.06;;;9.84;100.00
39793;BME280;26080;42.264;24.536;2022-10-04T04:00:44;99495.25;;;9.93;100.00
39793;BME280;26080;42.264;24.536;2022-10-04T04:03:17;99487.97;;;9.99;100.00
39793;BME280;26080;42.264;24.536;2022-10-04T04:05:46;99497.28;;;10.06;100.00
39793;BME280;26080;42.264;24.536;2022-10-04T04:08:34;99500.44;;;10.15;100.00
39793;BME280;26080;42.264;24.536;2022-10-04T04:11:02;99504.31;;;10.26;100.00
39793;BME280;26080;42.264;24.536;2022-10-04T04:13:29;99499.31;;;10.41;100.00
39793;BME280;26080;42.264;24.536;2022-10-04T04:15:59;99505.25;;;10.46;100.00
39793;BME280;26080;42.264;24.536;2022-10-04T04:18:27;99510.34;;;10.49;100.00
39793;BME280;26080;42.264;24.536;2022-10-04T04:20:56;99508.50;;;10.51;100.00
39793;BME280;26080;42.264;24.536;2022-10-04T04:23:27;99500.63;;;10.51;100.00
39793;BME280;26080;42.264;24.536;2022-10-04T04:25:57;99506.59;;;10.54;100.00
39793;BME280;26080;42.264;24.536;2022-10-04T04:30:52;99515.97;;;10.60;100.00
39793;BME280;26080;42.264;24.536;2022-10-04T04:33:24;99515.03;;;10.61;100.00
39793;BME280;26080;42.264;24.536;2022-10-04T04:36:03;99519.44;;;10.60;100.00
39793;BME280;26080;42.264;24.536;2022-10-04T04:38:30;99517.03;;;10.56;100.00
39793;BME280;26080;42.264;24.536;2022-10-04T04:40:56;99534.28;;;10.60;100.00
39793;BME280;26080;42.264;24.536;2022-10-04T04:43:26;99522.13;;;10.59;100.00
39793;BME280;26080;42.264;24.536;2022-10-04T04:45:51;99522.75;;;10.64;100.00
39793;BME280;26080;42.264;24.536;2022-10-04T04:48:17;99525.22;;;10.67;100.00
39793;BME280;26080;42.264;24.536;2022-10-04T04:50:53;99528.66;;;10.69;100.00
39793;BME280;26080;42.264;24.536;2022-10-04T04:53:25;99523.28;;;10.72;100.00
39793;BME280;26080;42.264;24.536;2022-10-04T04:58:21;99530.53;;;10.86;100.00
39793;BME280;26080;42.264;24.536;2022-10-04T05:00:52;99530.53;;;10.86;100.00
39793;BME280;26080;42.264;24.536;2022-10-04T05:03:18;99530.66;;;10.83;100.00
39793;BME280;26080;42.264;24.536;2022-10-04T05:05:44;99526.38;;;10.80;100.00
39793;BME280;26080;42.264;24.536;2022-10-04T05:08:20;99529.09;;;10.79;100.00
39793;BME280;26080;42.264;24.536;2022-10-04T05:13:14;99533.47;;;10.78;100.00
39793;BME280;26080;42.264;24.536;2022-10-04T05:15:41;99540.47;;;10.78;100.00
39793;BME280;26080;42.264;24.536;2022-10-04T05:20:42;99553.38;;;10.82;100.00
39793;BME280;26080;42.264;24.536;2022-10-04T05:23:12;99549.72;;;10.86;100.00
39793;BME280;26080;42.264;24.536;2022-10-04T05:25:37;99549.63;;;10.88;100.00
39793;BME280;26080;42.264;24.536;2022-10-04T05:28:02;99546.94;;;10.89;100.00
39793;BME280;26080;42.264;24.536;2022-10-04T05:33:17;99551.78;;;10.98;100.00
39793;BME280;26080;42.264;24.536;2022-10-04T05:38:18;99567.06;;;11.08;100.00
39793;BME280;26080;42.264;24.536;2022-10-04T05:41:01;99572.22;;;11.11;100.00
39793;BME280;26080;42.264;24.536;2022-10-04T05:48:40;99569.94;;;11.41;100.00
39793;BME280;26080;42.264;24.536;2022-10-04T05:53:48;99569.66;;;11.66;100.00
39793;BME280;26080;42.264;24.536;2022-10-04T05:58:43;99570.84;;;11.96;100.00
39793;BME280;26080;42.264;24.536;2022-10-04T06:01:32;99577.50;;;12.21;100.00
39793;BME280;26080;42.264;24.536;2022-10-04T06:14:24;99586.41;;;13.03;100.00
39793;BME280;26080;42.264;24.536;2022-10-04T06:21:58;99602.06;;;12.89;100.00
39793;BME280;26080;42.264;24.536;2022-10-04T06:24:28;99583.03;;;12.84;99.54
39793;BME280;26080;42.264;24.536;2022-10-04T06:27:00;99601.41;;;13.01;98.98
39793;BME280;26080;42.264;24.536;2022-10-04T06:29:29;99596.13;;;13.01;98.21
39793;BME280;26080;42.264;24.536;2022-10-04T06:40:11;99617.03;;;12.87;98.23
39793;BME280;26080;42.264;24.536;2022-10-04T06:52:57;99620.31;;;13.58;94.34
39793;BME280;26080;42.264;24.536;2022-10-04T06:55:44;99616.66;;;13.76;92.33
39793;BME280;26080;42.264;24.536;2022-10-04T07:01:01;99624.53;;;14.08;89.65
39793;BME280;26080;42.264;24.536;2022-10-04T07:03:38;99628.44;;;14.32;89.85
39793;BME280;26080;42.264;24.536;2022-10-04T07:06:06;99636.66;;;14.58;86.20
39793;BME280;26080;42.264;24.536;2022-10-04T07:13:43;99636.84;;;14.99;82.23
39793;BME280;26080;42.264;24.536;2022-10-04T07:21:07;99632.13;;;15.18;77.56
39793;BME280;26080;42.264;24.536;2022-10-04T07:23:36;99633.72;;;15.06;79.70
39793;BME280;26080;42.264;24.536;2022-10-04T07:26:07;99633.81;;;15.05;80.01
39793;BME280;26080;42.264;24.536;2022-10-04T07:28:40;99644.28;;;15.21;78.38
39793;BME280;26080;42.264;24.536;2022-10-04T07:31:27;99634.97;;;15.29;77.77
39793;BME280;26080;42.264;24.536;2022-10-04T07:33:56;99639.84;;;15.07;77.52
39793;BME280;26080;42.264;24.536;2022-10-04T07:36:44;99639.38;;;15.00;77.76
39793;BME280;26080;42.264;24.536;2022-10-04T07:39:10;99640.88;;;15.04;78.71
39793;BME280;26080;42.264;24.536;2022-10-04T07:49:11;99643.06;;;15.40;77.77
39793;BME280;26080;42.264;24.536;2022-10-04T07:56:41;99641.75;;;15.62;72.39
39793;BME280;26080;42.264;24.536;2022-10-04T07:59:34;99639.59;;;15.68;74.95
39793;BME280;26080;42.264;24.536;2022-10-04T08:02:47;99636.84;;;15.84;75.86
39793;BME280;26080;42.264;24.536;2022-10-04T08:04:57;99644.78;;;16.11;71.16
39793;BME280;26080;42.264;24.536;2022-10-04T08:07:31;99643.00;;;16.12;71.48
39793;BME280;26080;42.264;24.536;2022-10-04T08:15:39;99631.41;;;16.00;68.93
39793;BME280;26080;42.264;24.536;2022-10-04T08:20:37;99651.81;;;16.25;68.45
39793;BME280;26080;42.264;24.536;2022-10-04T08:23:31;99645.44;;;16.15;69.20
39793;BME280;26080;42.264;24.536;2022-10-04T08:31:51;99656.06;;;16.27;68.83
39793;BME280;26080;42.264;24.536;2022-10-04T08:34:37;99659.44;;;16.29;68.19
39793;BME280;26080;42.264;24.536;2022-10-04T08:37:32;99654.81;;;16.33;66.31
39793;BME280;26080;42.264;24.536;2022-10-04T08:58:20;99670.25;;;16.66;64.58
39793;BME280;26080;42.264;24.536;2022-10-04T09:01:26;99675.59;;;16.79;63.55
39793;BME280;26080;42.264;24.536;2022-10-04T09:03:55;99667.47;;;16.82;63.71
39793;BME280;26080;42.264;24.536;2022-10-04T09:06:43;99671.31;;;16.64;62.43
39793;BME280;26080;42.264;24.536;2022-10-04T09:55:44;99668.34;;;17.33;58.08
39793;BME280;26080;42.264;24.536;2022-10-04T10:09:01;99665.38;;;17.76;56.62
39793;BME280;26080;42.264;24.536;2022-10-04T10:14:34;99656.88;;;17.96;54.15
39793;BME280;26080;42.264;24.536;2022-10-04T10:17:13;99650.88;;;17.69;53.60
39793;BME280;26080;42.264;24.536;2022-10-04T10:43:51;99646.28;;;17.84;54.67
39793;BME280;26080;42.264;24.536;2022-10-04T10:58:41;99650.59;;;19.15;51.57
39793;BME280;26080;42.264;24.536;2022-10-04T11:11:55;99650.25;;;18.74;54.89
39793;BME280;26080;42.264;24.536;2022-10-04T11:32:38;99656.00;;;18.20;55.24
39793;BME280;26080;42.264;24.536;2022-10-04T11:37:57;99658.47;;;18.23;55.26
39793;BME280;26080;42.264;24.536;2022-10-04T11:40:32;99653.19;;;18.34;55.16
39793;BME280;26080;42.264;24.536;2022-10-04T12:12:04;99650.91;;;18.53;52.06
39793;BME280;26080;42.264;24.536;2022-10-04T12:14:57;99648.00;;;18.80;52.13
39793;BME280;26080;42.264;24.536;2022-10-04T12:41:06;99651.91;;;18.99;51.74
39793;BME280;26080;42.264;24.536;2022-10-04T12:53:34;99644.75;;;19.68;46.97
39793;BME280;26080;42.264;24.536;2022-10-04T13:14:52;99654.59;;;20.10;45.57
39793;BME280;26080;42.264;24.536;2022-10-04T13:20:14;99657.50;;;20.19;44.42
39793;BME280;26080;42.264;24.536;2022-10-04T13:25:39;99649.44;;;19.87;44.80
39793;BME280;26080;42.264;24.536;2022-10-04T13:30:56;99653.78;;;19.54;45.08
39793;BME280;26080;42.264;24.536;2022-10-04T13:36:10;99639.88;;;19.28;46.29
39793;BME280;26080;42.264;24.536;2022-10-04T13:41:24;99648.59;;;19.41;46.20
39793;BME280;26080;42.264;24.536;2022-10-04T13:44:09;99645.06;;;19.30;47.48
39793;BME280;26080;42.264;24.536;2022-10-04T13:54:06;99650.63;;;19.27;46.61
39793;BME280;26080;42.264;24.536;2022-10-04T13:56:57;99657.75;;;19.26;46.59
39793;BME280;26080;42.264;24.536;2022-10-04T14:17:38;99666.97;;;18.98;47.29
39793;BME280;26080;42.264;24.536;2022-10-04T14:20:29;99667.44;;;18.81;47.78
39793;BME280;26080;42.264;24.536;2022-10-04T14:46:20;99701.00;;;17.72;55.35
39793;BME280;26080;42.264;24.536;2022-10-04T14:51:23;99704.13;;;17.39;55.91
39793;BME280;26080;42.264;24.536;2022-10-04T15:07:00;99727.91;;;16.88;63.65
39793;BME280;26080;42.264;24.536;2022-10-04T15:17:26;99742.38;;;16.82;66.22
39793;BME280;26080;42.264;24.536;2022-10-04T15:22:41;99742.31;;;16.70;67.25
39793;BME280;26080;42.264;24.536;2022-10-04T15:27:52;99743.28;;;16.54;69.04
39793;BME280;26080;42.264;24.536;2022-10-04T15:43:22;99759.56;;;15.79;73.88
39793;BME280;26080;42.264;24.536;2022-10-04T16:06:06;99775.00;;;15.70;74.35
39793;BME280;26080;42.264;24.536;2022-10-04T16:11:12;99792.44;;;15.29;76.92
39793;BME280;26080;42.264;24.536;2022-10-04T16:13:52;99785.28;;;15.31;77.04
39793;BME280;26080;42.264;24.536;2022-10-04T16:36:43;99819.56;;;15.01;80.35
39793;BME280;26080;42.264;24.536;2022-10-04T16:39:10;99825.69;;;15.01;80.42
39793;BME280;26080;42.264;24.536;2022-10-04T16:42:00;99836.25;;;15.01;80.65
39793;BME280;26080;42.264;24.536;2022-10-04T16:44:36;99830.78;;;15.04;80.39
39793;BME280;26080;42.264;24.536;2022-10-04T16:50:04;99844.25;;;15.00;81.22
39793;BME280;26080;42.264;24.536;2022-10-04T16:57:41;99862.56;;;14.87;81.45
39793;BME280;26080;42.264;24.536;2022-10-04T17:02:54;99859.56;;;14.77;80.43
39793;BME280;26080;42.264;24.536;2022-10-04T17:05:42;99868.25;;;14.79;80.10
39793;BME280;26080;42.264;24.536;2022-10-04T17:13:20;99875.06;;;14.68;79.74
39793;BME280;26080;42.264;24.536;2022-10-04T17:18:17;99882.72;;;14.57;80.17
39793;BME280;26080;42.264;24.536;2022-10-04T17:46:54;99945.31;;;13.67;85.83
39793;BME280;26080;42.264;24.536;2022-10-04T17:52:14;99945.56;;;13.62;85.90
39793;BME280;26080;42.264;24.536;2022-10-04T17:55:02;99954.53;;;13.75;85.84
39793;BME280;26080;42.264;24.536;2022-10-04T17:57:48;99949.88;;;13.80;85.84
39793;BME280;26080;42.264;24.536;2022-10-04T18:00:19;99962.28;;;13.78;86.08
39793;BME280;26080;42.264;24.536;2022-10-04T18:05:14;99961.81;;;13.70;86.98
39793;BME280;26080;42.264;24.536;2022-10-04T18:10:37;99967.06;;;13.53;87.97
39793;BME280;26080;42.264;24.536;2022-10-04T18:13:16;99973.69;;;13.43;88.86
39793;BME280;26080;42.264;24.536;2022-10-04T18:15:57;99976.69;;;13.35;89.39
39793;BME280;26080;42.264;24.536;2022-10-04T18:18:26;99985.09;;;13.24;90.34
39793;BME280;26080;42.264;24.536;2022-10-04T18:21:00;99988.81;;;13.20;90.88
39793;BME280;26080;42.264;24.536;2022-10-04T18:23:30;99989.84;;;13.16;91.27
39793;BME280;26080;42.264;24.536;2022-10-04T18:25:56;99989.88;;;13.15;91.70
39793;BME280;26080;42.264;24.536;2022-10-04T18:28:23;99998.69;;;13.14;92.98
39793;BME280;26080;42.264;24.536;2022-10-04T18:33:15;100003.97;;;13.14;94.76
39793;BME280;26080;42.264;24.536;2022-10-04T18:35:51;100010.03;;;13.16;95.65
39793;BME280;26080;42.264;24.536;2022-10-04T18:38:21;100014.81;;;13.26;95.74
39793;BME280;26080;42.264;24.536;2022-10-04T18:40:55;100016.31;;;13.32;97.69
39793;BME280;26080;42.264;24.536;2022-10-04T18:43:32;100018.00;;;13.33;100.00
39793;BME280;26080;42.264;24.536;2022-10-04T18:48:35;100037.72;;;13.43;100.00
39793;BME280;26080;42.264;24.536;2022-10-04T18:51:15;100030.66;;;13.44;100.00
39793;BME280;26080;42.264;24.536;2022-10-04T18:53:45;100023.75;;;13.41;100.00
39793;BME280;26080;42.264;24.536;2022-10-04T18:56:13;100030.22;;;13.34;99.10
39793;BME280;26080;42.264;24.536;2022-10-04T18:59:00;100036.03;;;13.41;98.28
39793;BME280;26080;42.264;24.536;2022-10-04T19:06:59;100048.06;;;13.27;100.00
39793;BME280;26080;42.264;24.536;2022-10-04T19:12:05;100055.25;;;13.24;100.00
39793;BME280;26080;42.264;24.536;2022-10-04T19:14:44;100054.56;;;13.20;100.00
39793;BME280;26080;42.264;24.536;2022-10-04T19:27:56;100063.88;;;13.07;100.00
39793;BME280;26080;42.264;24.536;2022-10-04T19:30:23;100068.44;;;13.03;100.00
39793;BME280;26080;42.264;24.536;2022-10-04T19:40:37;100059.97;;;12.97;100.00
39793;BME280;26080;42.264;24.536;2022-10-04T19:43:12;100067.06;;;12.95;100.00
39793;BME280;26080;42.264;24.536;2022-10-04T19:48:24;100073.50;;;12.88;100.00
39793;BME280;26080;42.264;24.536;2022-10-04T19:50:52;100064.13;;;12.82;100.00
39793;BME280;26080;42.264;24.536;2022-10-04T19:53:26;100071.94;;;12.84;100.00
39793;BME280;26080;42.264;24.536;2022-10-04T19:55:55;100067.97;;;12.75;100.00
39793;BME280;26080;42.264;24.536;2022-10-04T20:00:50;100070.44;;;12.58;100.00
39793;BME280;26080;42.264;24.536;2022-10-04T20:03:16;100076.84;;;12.52;100.00
39793;BME280;26080;42.264;24.536;2022-10-04T20:05:45;100076.97;;;12.49;100.00
39793;BME280;26080;42.264;24.536;2022-10-04T20:08:11;100084.78;;;12.51;100.00
39793;BME280;26080;42.264;24.536;2022-10-04T20:10:37;100088.34;;;12.50;100.00
39793;BME280;26080;42.264;24.536;2022-10-04T20:18:00;100094.56;;;12.47;100.00
39793;BME280;26080;42.264;24.536;2022-10-04T20:23:07;100093.50;;;12.31;100.00
39793;BME280;26080;42.264;24.536;2022-10-04T20:36:07;100109.69;;;12.62;100.00
39793;BME280;26080;42.264;24.536;2022-10-04T20:38:49;100115.34;;;12.53;100.00
39793;BME280;26080;42.264;24.536;2022-10-04T20:46:21;100119.81;;;12.09;100.00
39793;BME280;26080;42.264;24.536;2022-10-04T20:48:47;100118.66;;;11.94;100.00
39793;BME280;26080;42.264;24.536;2022-10-04T20:51:13;100119.88;;;11.85;100.00
39793;BME280;26080;42.264;24.536;2022-10-04T20:53:41;100115.66;;;11.81;100.00
39793;BME280;26080;42.264;24.536;2022-10-04T20:56:10;100120.09;;;12.01;100.00
39793;BME280;26080;42.264;24.536;2022-10-04T20:58:48;100124.00;;;12.13;100.00
39793;BME280;26080;42.264;24.536;2022-10-04T21:01:36;100127.91;;;12.25;100.00
39793;BME280;26080;42.264;24.536;2022-10-04T21:07:15;100130.75;;;12.19;100.00
39793;BME280;26080;42.264;24.536;2022-10-04T21:09:30;100127.47;;;12.13;100.00
39793;BME280;26080;42.264;24.536;2022-10-04T21:11:57;100131.84;;;11.93;100.00
39793;BME280;26080;42.264;24.536;2022-10-04T21:14:35;100132.38;;;11.77;100.00
39793;BME280;26080;42.264;24.536;2022-10-04T21:21:58;100128.50;;;11.19;100.00
39793;BME280;26080;42.264;24.536;2022-10-04T21:26:56;100129.84;;;11.06;100.00
39793;BME280;26080;42.264;24.536;2022-10-04T21:29:21;100133.66;;;10.97;100.00
39793;BME280;26080;42.264;24.536;2022-10-04T21:31:46;100134.19;;;10.82;100.00
39793;BME280;26080;42.264;24.536;2022-10-04T21:34:12;100139.81;;;10.71;100.00
39793;BME280;26080;42.264;24.536;2022-10-04T21:36:37;100129.84;;;10.81;100.00
39793;BME280;26080;42.264;24.536;2022-10-04T21:39:02;100129.78;;;10.84;100.00
39793;BME280;26080;42.264;24.536;2022-10-04T21:41:28;100135.09;;;10.81;100.00
39793;BME280;26080;42.264;24.536;2022-10-04T21:43:53;100139.72;;;10.74;100.00
39793;BME280;26080;42.264;24.536;2022-10-04T21:46:18;100134.66;;;10.68;100.00
39793;BME280;26080;42.264;24.536;2022-10-04T21:48:43;100142.63;;;10.65;100.00
39793;BME280;26080;42.264;24.536;2022-10-04T21:51:09;100137.63;;;10.59;100.00
39793;BME280;26080;42.264;24.536;2022-10-04T21:53:34;100140.44;;;10.53;100.00
39793;BME280;26080;42.264;24.536;2022-10-04T21:55:59;100141.84;;;10.36;100.00
39793;BME280;26080;42.264;24.536;2022-10-04T21:58:24;100140.16;;;10.35;100.00
39793;BME280;26080;42.264;24.536;2022-10-04T22:00:50;100149.31;;;10.21;100.00
39793;BME280;26080;42.264;24.536;2022-10-04T22:03:15;100148.47;;;10.20;100.00
39793;BME280;26080;42.264;24.536;2022-10-04T22:05:40;100140.25;;;10.32;100.00
39793;BME280;26080;42.264;24.536;2022-10-04T22:08:05;100150.66;;;10.06;100.00
39793;BME280;26080;42.264;24.536;2022-10-04T22:10:31;100154.47;;;9.96;100.00
39793;BME280;26080;42.264;24.536;2022-10-04T22:12:56;100149.97;;;9.71;100.00
39793;BME280;26080;42.264;24.536;2022-10-04T22:15:22;100158.19;;;9.61;100.00
39793;BME280;26080;42.264;24.536;2022-10-04T22:17:48;100158.50;;;9.50;100.00
39793;BME280;26080;42.264;24.536;2022-10-04T22:20:13;100150.75;;;9.47;100.00
39793;BME280;26080;42.264;24.536;2022-10-04T22:22:38;100162.00;;;9.49;100.00
39793;BME280;26080;42.264;24.536;2022-10-04T22:25:09;100156.81;;;9.47;100.00
39793;BME280;26080;42.264;24.536;2022-10-04T22:27:34;100161.97;;;9.50;100.00
39793;BME280;26080;42.264;24.536;2022-10-04T22:29:59;100162.25;;;9.40;100.00
39793;BME280;26080;42.264;24.536;2022-10-04T22:32:25;100151.34;;;9.26;100.00
39793;BME280;26080;42.264;24.536;2022-10-04T22:34:52;100159.66;;;9.09;100.00
39793;BME280;26080;42.264;24.536;2022-10-04T22:37:22;100165.19;;;8.98;100.00
39793;BME280;26080;42.264;24.536;2022-10-04T22:39:48;100160.97;;;8.93;100.00
39793;BME280;26080;42.264;24.536;2022-10-04T22:42:14;100162.88;;;8.86;100.00
39793;BME280;26080;42.264;24.536;2022-10-04T22:44:39;100165.72;;;8.77;100.00
39793;BME280;26080;42.264;24.536;2022-10-04T22:47:08;100164.28;;;8.67;100.00
39793;BME280;26080;42.264;24.536;2022-10-04T22:49:34;100165.31;;;8.59;100.00
39793;BME280;26080;42.264;24.536;2022-10-04T22:52:05;100161.88;;;8.57;100.00
39793;BME280;26080;42.264;24.536;2022-10-04T22:54:33;100167.19;;;8.54;100.00
39793;BME280;26080;42.264;24.536;2022-10-04T22:56:59;100167.28;;;8.51;100.00
39793;BME280;26080;42.264;24.536;2022-10-04T22:59:34;100166.47;;;8.48;100.00
39793;BME280;26080;42.264;24.536;2022-10-04T23:02:04;100177.06;;;8.76;100.00
39793;BME280;26080;42.264;24.536;2022-10-04T23:04:30;100173.41;;;8.50;100.00
39793;BME280;26080;42.264;24.536;2022-10-04T23:06:55;100179.88;;;8.34;100.00
39793;BME280;26080;42.264;24.536;2022-10-04T23:09:21;100176.63;;;8.24;100.00
39793;BME280;26080;42.264;24.536;2022-10-04T23:11:46;100183.59;;;8.24;100.00
39793;BME280;26080;42.264;24.536;2022-10-04T23:14:11;100186.28;;;8.19;100.00
39793;BME280;26080;42.264;24.536;2022-10-04T23:16:37;100170.75;;;8.15;100.00
39793;BME280;26080;42.264;24.536;2022-10-04T23:19:12;100172.50;;;8.14;100.00
39793;BME280;26080;42.264;24.536;2022-10-04T23:21:39;100169.88;;;8.14;100.00
39793;BME280;26080;42.264;24.536;2022-10-04T23:24:14;100175.22;;;8.10;100.00
39793;BME280;26080;42.264;24.536;2022-10-04T23:26:40;100183.09;;;8.07;100.00
39793;BME280;26080;42.264;24.536;2022-10-04T23:29:29;100185.78;;;8.03;100.00
39793;BME280;26080;42.264;24.536;2022-10-04T23:31:51;100179.78;;;8.00;100.00
39793;BME280;26080;42.264;24.536;2022-10-04T23:34:18;100189.38;;;7.99;100.00